GJR weather

Gjögur Airport
Gjögur, Westfjords, Iceland

Public forecast

Using degrees Celsius for public forecast. Weather courtesy of forecast.io.

METAR (pilot weather report)

Closest report is Ísafjörður Airport, 44.3 nm (82.0 km) W. Retrieved 2019/03/24 11:00 UTC (11 minutes ago):

BIIS 241100Z VRB08KT 3000 -SN BKN025 00/M03 Q1012 RMK ARNARNES 340 25G30

TAF (pilot weather forecast)

Closest forecast is Akureyri Airport, 82.5 nm (152.8 km) ESE. Retrieved 2019/03/24 09:00 UTC (2 hours ago):

TAF TAF BIAR 240757Z 2409/2509 22007KT 9999 SCT020 BKN035 TX03/2412Z TNM04/2503Z PROB40 TEMPO 2409/2501 5000 SHSN BKN012 BECMG 2504/2506 15012KT